Terminal Aerodrome Forecast
Issued by NWS Austin/San Antonio, TX

Home | Current Version | Previous Version | Text Only | Print | Product List | Glossary On
Versions: 1 2 3 4 5 6 7 8 9 10 11 12
748
FTUS44 KEWX 062320
TAFSAT
TAF
KSAT 062320Z 0700/0806 33012KT P6SM SKC
     FM070200 02005KT P6SM FEW250
     FM071600 20010KT P6SM FEW250=

USA.gov is the U.S. government's official web portal to all federal, state and local government web resources and services.